Time;durP1;ratioP1;P1;durP2;ratioP2;P2;SDS_P1;SDS_P2;PMS_P1;PMS_P2;Temp;Humidity;BMP_temperature;BMP_pressure;BME280_temperature;BME280_humidity;BME280_pressure;Samples;Min_cycle;Max_cycle;Signal;HPM_P1;HPM_P2
2021/12/30 00:05:12;;;;;;;51.90;48.73;;;;;;;14.31;100.00;101110.08;1907613;72;85658;-74
2021/12/30 00:14:03;;;;;;;48.70;45.50;;;;;;;14.42;100.00;101114.39;1899632;75;86877;-77
2021/12/30 00:16:33;;;;;;;47.37;44.47;;;;;;;14.36;100.00;101112.27;1832281;75;937018;-77
2021/12/30 00:19:04;;;;;;;46.30;43.40;;;;;;;14.38;100.00;101122.56;1795703;78;940907;-74
2021/12/30 00:21:34;;;;;;;47.63;44.70;;;;;;;14.45;100.00;101122.19;1818850;78;939081;-74
2021/12/30 00:24:06;;;;;;;46.83;43.83;;;;;;;14.50;100.00;101119.31;1823167;77;940903;-75
2021/12/30 00:29:50;;;;;;;48.73;45.73;;;;;;;14.54;100.00;101113.38;1985149;71;39576;-76
2021/12/30 00:35:34;;;;;;;52.03;48.93;;;;;;;14.53;100.00;101115.34;1889001;74;86280;-77
2021/12/30 00:41:20;;;;;;;48.20;44.90;;;;;;;14.58;100.00;101111.06;1876765;75;86587;-76
2021/12/30 00:47:07;;;;;;;49.70;46.60;;;;;;;14.65;100.00;101112.62;1911071;72;86105;-74
2021/12/30 00:52:58;;;;;;;46.33;43.33;;;;;;;14.64;100.00;101119.34;1941209;71;39652;-75
2021/12/30 00:58:43;;;;;;;50.63;47.57;;;;;;;14.68;100.00;101125.41;1850777;76;86167;-75
2021/12/30 01:04:27;;;;;;;46.57;43.57;;;;;;;14.66;100.00;101115.69;1899131;73;85990;-78
2021/12/30 01:10:15;;;;;;;48.30;45.10;;;;;;;14.72;100.00;101128.45;1906864;74;86188;-78
2021/12/30 01:16:02;;;;;;;48.00;44.87;;;;;;;14.67;100.00;101139.16;1980081;71;39540;-75
2021/12/30 01:21:48;;;;;;;50.87;47.57;;;;;;;14.71;100.00;101144.39;1803313;78;86403;-75
2021/12/30 01:27:36;;;;;;;50.37;46.97;;;;;;;14.71;100.00;101139.37;1910276;74;86636;-74
2021/12/30 01:33:20;;;;;;;49.60;46.30;;;;;;;14.71;100.00;101153.34;1882963;74;86314;-78
2021/12/30 01:39:07;;;;;;;53.03;49.70;;;;;;;14.69;100.00;101159.23;1948060;72;86008;-74
2021/12/30 01:44:51;;;;;;;52.60;49.23;;;;;;;14.74;100.00;101148.53;1984564;71;39439;-76
2021/12/30 01:50:36;;;;;;;54.30;50.90;;;;;;;14.72;100.00;101160.61;1837120;76;87253;-74
2021/12/30 01:56:23;;;;;;;54.53;51.23;;;;;;;14.74;100.00;101161.12;1884513;73;86197;-76
2021/12/30 02:02:11;;;;;;;56.23;52.87;;;;;;;14.73;100.00;101156.66;1919876;71;85517;-74
2021/12/30 02:07:56;;;;;;;56.20;52.67;;;;;;;14.74;100.00;101159.72;1983059;71;39575;-74
2021/12/30 02:13:40;;;;;;;55.90;52.30;;;;;;;14.77;100.00;101161.89;1951740;72;85499;-75
2021/12/30 02:19:24;;;;;;;55.97;52.57;;;;;;;14.80;100.00;101165.50;1882776;74;86551;-75
2021/12/30 02:25:10;;;;;;;53.83;50.47;;;;;;;14.76;100.00;101168.05;1911536;73;86499;-74
2021/12/30 02:30:54;;;;;;;54.17;50.77;;;;;;;14.81;100.00;101176.36;1986098;71;39501;-77
2021/12/30 02:36:39;;;;;;;52.27;48.97;;;;;;;14.81;100.00;101181.12;1838136;76;85626;-75
2021/12/30 02:42:27;;;;;;;52.67;49.40;;;;;;;14.84;100.00;101195.91;1876594;73;86525;-74
2021/12/30 02:48:17;;;;;;;50.67;47.40;;;;;;;14.78;100.00;101185.94;1914700;74;85712;-75
2021/12/30 02:54:07;;;;;;;52.70;49.47;;;;;;;14.82;100.00;101198.17;1934288;71;86497;-76
2021/12/30 02:59:51;;;;;;;51.93;48.67;;;;;;;14.78;100.00;101192.92;1977261;71;39493;-77
2021/12/30 03:05:38;;;;;;;50.50;47.47;;;;;;;14.82;100.00;101200.41;1844753;76;86637;-77
2021/12/30 03:11:27;;;;;;;50.40;47.30;;;;;;;14.84;100.00;101216.33;1880900;73;85500;-76
2021/12/30 03:17:17;;;;;;;53.27;49.97;;;;;;;14.86;100.00;101221.59;1913506;73;85379;-77
2021/12/30 03:23:02;;;;;;;48.10;45.13;;;;;;;14.88;100.00;101205.36;1928924;73;85503;-73
2021/12/30 03:28:49;;;;;;;50.77;47.67;;;;;;;14.87;100.00;101223.27;1891324;74;86122;-77
2021/12/30 03:34:34;;;;;;;50.37;47.27;;;;;;;14.88;100.00;101206.75;1905151;74;86539;-73
2021/12/30 03:40:20;;;;;;;50.87;47.73;;;;;;;14.92;100.00;101200.81;1813705;77;85505;-74
2021/12/30 03:46:05;;;;;;;52.97;49.63;;;;;;;14.97;100.00;101209.13;1913660;72;86999;-77
2021/12/30 03:51:54;;;;;;;54.30;50.90;;;;;;;14.88;100.00;101213.74;1986099;71;39658;-77
2021/12/30 03:57:38;;;;;;;49.87;46.77;;;;;;;14.90;100.00;101222.64;1827251;76;85659;-75
2021/12/30 04:03:25;;;;;;;50.90;47.77;;;;;;;14.95;100.00;101217.81;1873062;73;86318;-77
2021/12/30 04:09:09;;;;;;;49.17;46.07;;;;;;;14.99;100.00;101232.01;1917655;74;85538;-74
2021/12/30 04:14:53;;;;;;;49.40;46.07;;;;;;;15.02;100.00;101221.03;1946873;71;39599;-75
2021/12/30 04:20:38;;;;;;;50.37;46.93;;;;;;;15.06;100.00;101228.83;1846398;75;86694;-74
2021/12/30 04:29:37;;;;;;;50.43;46.83;;;;;;;14.98;100.00;101234.53;1847927;76;86319;-75
2021/12/30 04:35:22;;;;;;;49.47;45.93;;;;;;;14.99;100.00;101223.61;1874732;75;86432;-77
2021/12/30 04:41:09;;;;;;;50.27;46.67;;;;;;;14.96;100.00;101215.28;1913831;73;86364;-76
2021/12/30 04:46:57;;;;;;;52.03;48.10;;;;;;;14.91;100.00;101213.96;1939965;71;39610;-77
2021/12/30 04:52:41;;;;;;;50.93;47.53;;;;;;;14.94;100.00;101218.10;1840590;76;86116;-77
2021/12/30 04:58:26;;;;;;;53.90;49.97;;;;;;;14.89;100.00;101226.01;1869073;75;86522;-76
2021/12/30 05:04:11;;;;;;;52.17;48.03;;;;;;;14.89;100.00;101234.40;1906577;74;86453;-76
2021/12/30 05:09:55;;;;;;;54.67;50.37;;;;;;;14.88;100.00;101235.56;1980264;71;39652;-75
2021/12/30 05:15:40;;;;;;;51.20;47.43;;;;;;;14.91;100.00;101239.70;1968104;71;86860;-74
2021/12/30 05:21:28;;;;;;;53.23;49.27;;;;;;;14.89;100.00;101256.77;1949571;73;86679;-76
2021/12/30 05:27:12;;;;;;;54.83;50.47;;;;;;;14.89;100.00;101253.17;1884166;75;85978;-76
2021/12/30 05:32:57;;;;;;;54.17;49.93;;;;;;;14.84;100.00;101263.04;1950964;71;39802;-74
2021/12/30 05:38:42;;;;;;;52.33;47.77;;;;;;;14.81;100.00;101265.86;1953081;72;85335;-76
2021/12/30 05:44:27;;;;;;;53.70;49.23;;;;;;;14.82;100.00;101268.09;1897295;73;86599;-77
2021/12/30 05:50:14;;;;;;;55.67;50.70;;;;;;;14.83;100.00;101258.01;1922932;74;86506;-74
2021/12/30 05:56:01;;;;;;;53.93;49.50;;;;;;;14.81;100.00;101267.26;1980348;71;39587;-73
2021/12/30 06:08:13;;;;;;;53.87;49.43;;;;;;;14.82;100.00;101289.06;1928051;73;86542;-75
2021/12/30 06:13:58;;;;;;;53.40;48.80;;;;;;;14.79;100.00;101278.50;1985037;70;40298;-75
2021/12/30 06:19:44;;;;;;;51.80;47.00;;;;;;;14.83;100.00;101277.59;1837604;76;86070;-73
2021/12/30 06:25:29;;;;;;;52.43;48.13;;;;;;;14.78;100.00;101282.42;1837968;76;86719;-74
2021/12/30 06:31:12;;;;;;;55.10;50.17;;;;;;;14.79;100.00;101284.09;1924684;74;86608;-77
2021/12/30 06:36:56;;;;;;;52.17;47.23;;;;;;;14.79;100.00;101284.09;1941068;71;39543;-76
2021/12/30 06:42:42;;;;;;;58.33;53.83;;;;;;;14.76;100.00;101276.31;1836563;76;86441;-76
2021/12/30 06:48:27;;;;;;;55.50;50.53;;;;;;;14.78;100.00;101279.06;1870252;74;86600;-76
2021/12/30 06:54:13;;;;;;;52.40;48.10;;;;;;;14.80;100.00;101272.61;1915409;73;86272;-75
2021/12/30 06:59:57;;;;;;;54.73;50.17;;;;;;;14.79;100.00;101292.48;1977871;71;39595;-75
2021/12/30 07:05:41;;;;;;;53.37;48.77;;;;;;;14.80;100.00;101292.75;1837779;75;86456;-76
2021/12/30 07:11:28;;;;;;;52.77;48.80;;;;;;;14.78;100.00;101295.00;1900647;73;86758;-74
2021/12/30 07:17:15;;;;;;;53.37;48.90;;;;;;;14.81;100.00;101298.02;1923968;72;86363;-75
2021/12/30 07:22:59;;;;;;;54.00;49.60;;;;;;;14.81;100.00;101296.62;1977605;71;39446;-74
2021/12/30 07:28:42;;;;;;;53.87;49.30;;;;;;;14.84;100.00;101297.44;1924498;72;85821;-74
2021/12/30 07:34:26;;;;;;;49.90;45.50;;;;;;;14.81;100.00;101295.22;1882104;73;86868;-75
2021/12/30 07:40:13;;;;;;;53.60;49.30;;;;;;;14.82;100.00;101305.28;1916397;73;86075;-73
2021/12/30 07:45:57;;;;;;;53.67;49.10;;;;;;;14.91;100.00;101314.66;1976075;71;39596;-75
2021/12/30 07:51:43;;;;;;;54.20;50.00;;;;;;;14.95;100.00;101330.27;1840733;75;86411;-75
2021/12/30 07:57:27;;;;;;;53.50;49.30;;;;;;;14.97;100.00;101330.22;1870704;75;86758;-75
2021/12/30 08:03:11;;;;;;;55.47;51.27;;;;;;;15.00;100.00;101344.19;1918915;72;85481;-75
2021/12/30 08:08:56;;;;;;;55.80;51.67;;;;;;;15.05;100.00;101341.31;1978526;71;39604;-75
2021/12/30 08:14:40;;;;;;;58.93;54.93;;;;;;;14.99;100.00;101351.73;1848703;76;86337;-76
2021/12/30 08:20:27;;;;;;;57.73;53.30;;;;;;;14.88;100.00;101364.22;1873713;75;86714;-78
2021/12/30 08:26:15;;;;;;;56.50;52.43;;;;;;;14.97;100.00;101367.98;1906128;73;86006;-72
2021/12/30 08:31:58;;;;;;;57.50;53.60;;;;;;;14.98;100.00;101366.86;1973198;70;39800;-74
2021/12/30 08:37:43;;;;;;;57.23;53.33;;;;;;;14.97;100.00;101374.17;1891472;74;85478;-74
2021/12/30 08:43:31;;;;;;;58.50;54.50;;;;;;;14.96;100.00;101378.09;1873066;75;86109;-75
2021/12/30 08:49:17;;;;;;;58.10;54.10;;;;;;;15.04;100.00;101376.02;1934747;72;86059;-77
2021/12/30 08:55:09;;;;;;;56.57;52.90;;;;;;;15.11;100.00;101395.21;1909972;72;85792;-75
2021/12/30 09:00:57;;;;;;;60.57;56.37;;;;;;;15.20;100.00;101408.80;1977479;71;39653;-78
2021/12/30 09:06:41;;;;;;;59.10;55.10;;;;;;;15.15;100.00;101407.46;1837496;76;86382;-76
2021/12/30 09:12:28;;;;;;;55.47;51.57;;;;;;;15.13;100.00;101401.34;1883568;73;86321;-77
2021/12/30 09:18:13;;;;;;;59.17;54.73;;;;;;;15.19;100.00;101405.16;1911615;74;86444;-77
2021/12/30 09:23:58;;;;;;;58.60;54.60;;;;;;;15.24;100.00;101398.66;1985111;71;40206;-79
2021/12/30 09:29:43;;;;;;;58.00;53.93;;;;;;;15.26;100.00;101414.03;1844645;76;86010;-77
2021/12/30 09:35:30;;;;;;;58.13;53.90;;;;;;;15.34;100.00;101395.71;1904384;74;86789;-76
2021/12/30 09:41:15;;;;;;;55.97;51.87;;;;;;;15.43;100.00;101419.92;1918532;74;86561;-74
2021/12/30 09:46:59;;;;;;;59.20;54.70;;;;;;;15.45;100.00;101416.23;1983344;71;39589;-74
2021/12/30 09:52:44;;;;;;;63.30;58.40;;;;;;;15.41;100.00;101424.14;1815784;75;86945;-75
2021/12/30 09:58:30;;;;;;;56.63;52.27;;;;;;;15.45;100.00;101424.63;1887168;74;86291;-75
2021/12/30 10:04:15;;;;;;;53.33;49.30;;;;;;;15.47;100.00;101441.14;1945656;73;85373;-74
2021/12/30 10:10:03;;;;;;;54.57;50.37;;;;;;;15.49;100.00;101429.88;1973198;71;39628;-75
2021/12/30 10:15:52;;;;;;;56.80;52.07;;;;;;;15.46;100.00;101438.06;1945439;71;39746;-73
2021/12/30 10:21:40;;;;;;;58.33;53.73;;;;;;;15.48;100.00;101453.44;1830549;75;87168;-74
2021/12/30 10:27:28;;;;;;;57.17;52.40;;;;;;;15.43;100.00;101449.88;1838708;75;86664;-72
2021/12/30 10:33:18;;;;;;;57.00;53.03;;;;;;;15.47;100.00;101450.94;1926174;73;86119;-75
2021/12/30 10:39:21;;;;;;;57.60;53.30;;;;;;;15.49;100.00;101462.65;1909443;72;86709;-76
2021/12/30 10:45:09;;;;;;;58.03;53.83;;;;;;;15.47;100.00;101462.97;1900178;73;86566;-74
2021/12/30 10:51:16;;;;;;;60.57;56.03;;;;;;;15.49;100.00;101470.48;1946802;71;86243;-76
2021/12/30 10:57:04;;;;;;;54.23;49.93;;;;;;;15.54;100.00;101464.01;1983959;71;40299;-76
2021/12/30 11:02:49;;;;;;;58.13;54.00;;;;;;;15.56;100.00;101459.52;1987898;71;39642;-75
2021/12/30 11:08:33;;;;;;;56.83;52.93;;;;;;;15.54;100.00;101467.37;1888184;74;85803;-74
2021/12/30 11:14:26;;;;;;;64.03;59.93;;;;;;;15.62;100.00;101475.92;1873944;73;87247;-73
2021/12/30 11:20:24;;;;;;;61.13;57.17;;;;;;;15.57;100.00;101468.19;1869726;74;86553;-73
2021/12/30 11:26:08;;;;;;;60.97;57.00;;;;;;;15.58;100.00;101463.66;1939421;72;86119;-73
2021/12/30 11:31:52;;;;;;;59.43;55.53;;;;;;;15.57;100.00;101493.39;1943405;71;39656;-74
2021/12/30 11:37:39;;;;;;;56.53;52.63;;;;;;;15.52;100.00;101483.09;1854212;76;86397;-74
2021/12/30 11:43:27;;;;;;;56.87;53.20;;;;;;;15.57;100.00;101487.23;1914650;73;86436;-73
2021/12/30 11:49:13;;;;;;;58.53;54.13;;;;;;;15.55;100.00;101484.45;1925109;73;85580;-74
2021/12/30 11:55:01;;;;;;;67.63;63.03;;;;;;;15.52;100.00;101482.26;1957569;71;39726;-74
2021/12/30 12:00:46;;;;;;;59.97;55.57;;;;;;;15.49;100.00;101495.69;1974110;71;85631;-73
2021/12/30 12:10:20;;;;;;;56.03;52.00;;;;;;;15.67;100.00;101483.41;1915112;73;86354;-77
2021/12/30 12:12:50;;;;;;;60.00;56.08;;;;;;;15.65;100.00;101501.11;1863099;74;938719;-76
2021/12/30 12:15:20;;;;;;;58.97;54.70;;;;;;;15.74;100.00;101500.69;1857741;75;939786;-73
2021/12/30 12:17:50;;;;;;;63.80;59.60;;;;;;;15.74;100.00;101495.09;1790773;77;940764;-74
2021/12/30 12:20:27;;;;;;;61.53;56.87;;;;;;;15.73;100.00;101483.61;1806403;77;940696;-73
2021/12/30 12:22:56;;;;;;;64.63;60.40;;;;;;;15.70;100.00;101478.03;1810442;75;968177;-73
2021/12/30 12:28:47;;;;;;;68.63;64.23;;;;;;;15.65;100.00;101476.73;1845501;76;86596;-74
2021/12/30 12:34:37;;;;;;;64.53;60.33;;;;;;;15.65;100.00;101484.30;1798950;78;85603;-74
2021/12/30 12:37:27;;;;;;;70.90;66.40;;;;;;;15.63;100.00;101493.56;1758816;77;937826;-73
2021/12/30 12:43:19;;;;;;;59.17;54.83;;;;;;;15.61;100.00;101482.69;1933463;72;85417;-73
2021/12/30 12:49:12;;;;;;;64.43;59.73;;;;;;;15.54;100.00;101488.38;1907056;74;86259;-77
2021/12/30 12:55:10;;;;;;;65.17;60.67;;;;;;;15.49;100.00;101479.45;1945567;72;86505;-75
2021/12/30 13:00:57;;;;;;;62.90;58.63;;;;;;;15.55;100.00;101478.28;1984093;71;39688;-73
2021/12/30 13:06:44;;;;;;;68.57;64.00;;;;;;;15.55;100.00;101484.45;1832923;76;86729;-74
2021/12/30 13:15:49;;;;;;;64.27;59.77;;;;;;;15.56;100.00;101495.92;1986765;71;39827;-76
2021/12/30 13:21:42;;;;;;;63.13;58.33;;;;;;;15.56;100.00;101488.92;1882749;74;86814;-72
2021/12/30 13:27:45;;;;;;;63.50;58.80;;;;;;;15.58;100.00;101483.83;1850917;76;86378;-73
2021/12/30 13:33:28;;;;;;;60.83;56.00;;;;;;;15.61;100.00;101487.45;1873364;74;86732;-72
2021/12/30 13:39:14;;;;;;;60.17;55.93;;;;;;;15.59;100.00;101475.70;1911769;73;86124;-79
2021/12/30 13:45:08;;;;;;;62.27;57.93;;;;;;;15.63;100.00;101482.36;1934216;71;86504;-80
2021/12/30 13:50:55;;;;;;;60.57;56.30;;;;;;;15.66;100.00;101481.17;1942042;71;39664;-74
2021/12/30 13:56:45;;;;;;;64.07;59.37;;;;;;;15.74;100.00;101476.88;1972241;72;85584;-77
2021/12/30 14:02:29;;;;;;;61.73;57.20;;;;;;;15.71;100.00;101495.67;1883282;73;86111;-81
2021/12/30 14:08:24;;;;;;;65.17;60.13;;;;;;;15.72;100.00;101494.55;1895270;75;85626;-78
2021/12/30 14:14:15;;;;;;;59.53;55.13;;;;;;;15.74;100.00;101510.49;1906603;74;86182;-78
2021/12/30 14:20:02;;;;;;;60.50;55.60;;;;;;;15.72;100.00;101516.95;1875278;74;86366;-75
2021/12/30 14:25:49;;;;;;;60.50;55.90;;;;;;;15.73;100.00;101518.06;1972623;71;39613;-74
2021/12/30 14:31:36;;;;;;;65.03;59.70;;;;;;;15.57;100.00;101516.63;1795808;79;85579;-74
2021/12/30 14:37:32;;;;;;;65.77;60.70;;;;;;;15.58;100.00;101511.27;1808896;78;86609;-73
2021/12/30 14:43:20;;;;;;;67.67;62.87;;;;;;;15.46;100.00;101527.09;1904270;72;85644;-75
2021/12/30 14:49:07;;;;;;;67.50;62.57;;;;;;;15.37;100.00;101534.50;1923684;73;86178;-74
2021/12/30 14:54:55;;;;;;;61.33;56.40;;;;;;;15.37;100.00;101540.09;1962361;71;39696;-74
2021/12/30 15:00:43;;;;;;;62.13;57.00;;;;;;;15.40;100.00;101542.28;1849093;76;86366;-74
2021/12/30 15:06:28;;;;;;;61.33;56.50;;;;;;;15.31;100.00;101558.11;1875425;74;86307;-75
2021/12/30 15:12:12;;;;;;;60.97;56.10;;;;;;;15.32;100.00;101546.33;1909550;73;86685;-73
2021/12/30 15:17:58;;;;;;;66.13;60.87;;;;;;;15.34;100.00;101551.06;1983680;71;39538;-74
2021/12/30 15:23:43;;;;;;;62.60;58.00;;;;;;;15.35;100.00;101560.58;1836502;76;86407;-73
2021/12/30 15:29:26;;;;;;;60.67;56.10;;;;;;;15.27;100.00;101566.84;1899000;73;86435;-73
2021/12/30 15:35:13;;;;;;;66.70;62.20;;;;;;;15.18;100.00;101565.84;1925998;72;86100;-73
2021/12/30 15:40:59;;;;;;;60.10;55.60;;;;;;;15.10;100.00;101567.90;1982658;71;39645;-74
2021/12/30 15:46:43;;;;;;;62.80;58.23;;;;;;;15.03;100.00;101570.20;1837269;76;86182;-73
2021/12/30 15:52:28;;;;;;;60.63;56.50;;;;;;;15.12;100.00;101581.01;1891244;73;86130;-74
2021/12/30 15:58:12;;;;;;;60.70;56.10;;;;;;;15.09;100.00;101580.77;1918873;73;85649;-75
2021/12/30 16:03:56;;;;;;;57.27;52.70;;;;;;;15.14;100.00;101595.55;1978146;71;39840;-71
2021/12/30 16:09:41;;;;;;;61.10;56.70;;;;;;;15.10;100.00;101597.84;1848418;76;86238;-72
2021/12/30 16:15:26;;;;;;;60.77;55.87;;;;;;;15.09;100.00;101597.00;1871066;74;86929;-73
2021/12/30 16:21:10;;;;;;;59.10;54.73;;;;;;;15.00;100.00;101606.61;1907042;72;86754;-73
2021/12/30 16:26:55;;;;;;;61.27;56.77;;;;;;;14.97;100.00;101618.97;1971234;71;39742;-75
2021/12/30 16:32:38;;;;;;;60.67;56.07;;;;;;;14.92;100.00;101629.64;1825027;76;86423;-71
2021/12/30 16:38:25;;;;;;;63.07;58.17;;;;;;;14.88;100.00;101626.33;1871238;75;85617;-73
2021/12/30 16:44:10;;;;;;;61.73;57.33;;;;;;;14.85;100.00;101627.73;1910923;74;85901;-73
2021/12/30 16:49:59;;;;;;;60.43;55.70;;;;;;;14.79;100.00;101624.74;1980093;70;39470;-75
2021/12/30 16:55:43;;;;;;;57.60;53.00;;;;;;;14.75;100.00;101625.63;1873452;76;86909;-74
2021/12/30 17:01:29;;;;;;;58.77;54.33;;;;;;;14.70;100.00;101625.11;1886054;74;86293;-71
2021/12/30 17:07:13;;;;;;;55.37;51.17;;;;;;;14.78;100.00;101626.42;1932236;72;86431;-74
2021/12/30 17:12:58;;;;;;;55.93;51.60;;;;;;;14.76;100.00;101632.89;1977898;71;39547;-71
2021/12/30 17:18:44;;;;;;;56.97;52.53;;;;;;;14.79;100.00;101640.13;1891311;74;86481;-74
2021/12/30 17:24:28;;;;;;;58.40;53.57;;;;;;;14.72;100.00;101641.60;1879090;74;86843;-78
2021/12/30 17:30:13;;;;;;;54.77;50.47;;;;;;;14.73;100.00;101638.48;1925564;73;86691;-75
2021/12/30 17:36:02;;;;;;;57.47;52.83;;;;;;;14.72;100.00;101631.22;1936947;71;39503;-72
2021/12/30 17:41:46;;;;;;;58.27;53.43;;;;;;;14.66;100.00;101634.38;1855186;76;86585;-76
2021/12/30 17:47:30;;;;;;;58.17;53.53;;;;;;;14.61;100.00;101626.86;1798059;78;86821;-73
2021/12/30 17:53:15;;;;;;;57.87;53.37;;;;;;;14.54;100.00;101631.41;1932670;73;86779;-75
2021/12/30 17:59:00;;;;;;;56.50;51.80;;;;;;;14.46;100.00;101635.39;1975068;71;40366;-74
2021/12/30 18:04:42;;;;;;;56.63;52.30;;;;;;;14.39;100.00;101644.09;1762209;80;86254;-78
2021/12/30 18:10:28;;;;;;;51.33;47.53;;;;;;;14.45;100.00;101641.55;1914078;74;85439;-76
2021/12/30 18:16:14;;;;;;;54.73;50.47;;;;;;;14.36;100.00;101632.67;1898889;72;86473;-77
2021/12/30 18:21:59;;;;;;;53.40;49.37;;;;;;;14.35;100.00;101633.23;1933566;71;39750;-71
2021/12/30 18:27:43;;;;;;;54.43;50.40;;;;;;;14.32;100.00;101610.03;1843978;76;85698;-69
2021/12/30 18:33:26;;;;;;;52.50;48.67;;;;;;;14.46;100.00;101621.42;1891721;73;86558;-74
2021/12/30 18:39:10;;;;;;;50.67;46.67;;;;;;;14.50;100.00;101620.51;1925889;73;86631;-69
2021/12/30 18:44:55;;;;;;;51.13;47.03;;;;;;;14.50;100.00;101636.48;1984068;71;39648;-69
2021/12/30 18:50:41;;;;;;;50.67;46.53;;;;;;;14.55;100.00;101647.59;1836927;76;86172;-68
2021/12/30 18:56:27;;;;;;;51.57;47.70;;;;;;;14.61;100.00;101640.84;1884630;74;85787;-70
2021/12/30 19:02:13;;;;;;;51.00;47.40;;;;;;;14.63;100.00;101653.14;1911643;74;85572;-75
2021/12/30 19:07:58;;;;;;;52.07;48.37;;;;;;;14.57;100.00;101664.92;1986247;71;39506;-77
2021/12/30 19:13:44;;;;;;;53.80;50.20;;;;;;;14.48;100.00;101660.52;1831771;75;86201;-74
2021/12/30 19:19:28;;;;;;;51.17;47.10;;;;;;;14.48;100.00;101667.52;1884371;74;86483;-75
2021/12/30 19:25:15;;;;;;;51.17;47.13;;;;;;;14.47;100.00;101665.00;1911006;74;86472;-75
2021/12/30 19:30:58;;;;;;;50.80;47.10;;;;;;;14.51;100.00;101680.05;1983016;71;39720;-75
2021/12/30 19:36:42;;;;;;;51.53;47.83;;;;;;;14.54;100.00;101676.70;1851428;76;86543;-69
2021/12/30 19:42:27;;;;;;;50.77;46.97;;;;;;;14.56;100.00;101675.83;1885334;74;86871;-69
2021/12/30 19:51:19;;;;;;;52.13;48.43;;;;;;;14.63;100.00;101686.14;1941979;73;86440;-73
2021/12/30 19:53:49;;;;;;;54.60;50.87;;;;;;;14.58;100.00;101694.56;1876428;73;947703;-71
2021/12/30 19:56:20;;;;;;;52.27;48.30;;;;;;;14.58;100.00;101700.16;1887960;72;940924;-70
2021/12/30 20:02:06;;;;;;;55.13;51.33;;;;;;;14.61;100.00;101677.75;1912360;74;86582;-72
2021/12/30 20:07:50;;;;;;;56.10;51.83;;;;;;;14.57;100.00;101689.53;1987319;71;39510;-71
2021/12/30 20:13:37;;;;;;;60.63;56.37;;;;;;;14.56;100.00;101680.02;1883995;74;86598;-73
2021/12/30 20:19:21;;;;;;;59.00;54.93;;;;;;;14.51;100.00;101675.86;1892255;75;86392;-71
2021/12/30 20:25:06;;;;;;;53.17;49.00;;;;;;;14.49;100.00;101671.98;1924141;73;86244;-71
2021/12/30 20:30:52;;;;;;;56.90;52.57;;;;;;;14.53;100.00;101671.67;1978840;71;39724;-71
2021/12/30 20:36:37;;;;;;;54.43;50.43;;;;;;;14.50;100.00;101679.22;1836686;75;86484;-69
2021/12/30 20:42:22;;;;;;;54.43;50.27;;;;;;;14.53;100.00;101678.66;1882785;74;86334;-73
2021/12/30 20:48:07;;;;;;;54.77;50.77;;;;;;;14.57;100.00;101676.95;1933346;71;86669;-69
2021/12/30 20:53:55;;;;;;;55.97;51.87;;;;;;;14.68;100.00;101658.11;1982819;71;39642;-72
2021/12/30 20:59:41;;;;;;;52.80;48.43;;;;;;;14.70;100.00;101653.07;1960672;72;86528;-72
2021/12/30 21:05:31;;;;;;;54.60;50.57;;;;;;;14.77;100.00;101656.35;1880480;74;85334;-71
2021/12/30 21:11:15;;;;;;;53.07;48.87;;;;;;;14.87;100.00;101660.47;1945675;73;86675;-70
2021/12/30 21:17:00;;;;;;;56.63;52.50;;;;;;;14.88;100.00;101658.50;1985101;71;39662;-72
2021/12/30 21:22:45;;;;;;;55.57;51.57;;;;;;;14.87;100.00;101679.20;1853380;76;85603;-68
2021/12/30 21:28:29;;;;;;;53.27;49.33;;;;;;;14.90;100.00;101686.44;1909823;74;86457;-69
2021/12/30 21:34:14;;;;;;;52.07;48.10;;;;;;;14.95;100.00;101680.80;1914582;74;86469;-68
2021/12/30 21:39:58;;;;;;;51.60;47.47;;;;;;;14.89;100.00;101679.17;1940260;71;39983;-69
2021/12/30 21:45:42;;;;;;;50.30;46.77;;;;;;;14.88;100.00;101680.88;1981916;70;85911;-72
2021/12/30 21:51:27;;;;;;;52.77;48.97;;;;;;;14.93;100.00;101664.05;1901452;73;86669;-68
2021/12/30 21:57:11;;;;;;;51.50;47.67;;;;;;;14.91;100.00;101654.55;1907626;72;86526;-68
2021/12/30 22:02:56;;;;;;;53.47;49.67;;;;;;;14.96;100.00;101658.70;1934994;71;39819;-69
2021/12/30 22:08:41;;;;;;;51.97;48.37;;;;;;;14.97;100.00;101656.14;1843233;76;85737;-71
2021/12/30 22:14:27;;;;;;;52.97;49.27;;;;;;;14.97;100.00;101652.55;1888600;74;86776;-69
2021/12/30 22:20:17;;;;;;;51.27;47.57;;;;;;;14.96;100.00;101649.47;1916287;73;85372;-69
2021/12/30 22:26:02;;;;;;;50.63;47.23;;;;;;;14.92;100.00;101650.63;1964008;71;39626;-72
2021/12/30 22:31:45;;;;;;;52.50;49.03;;;;;;;14.93;100.00;101650.06;1844898;75;86549;-71
2021/12/30 22:37:29;;;;;;;51.43;47.53;;;;;;;14.92;100.00;101635.80;1880468;74;86276;-69
2021/12/30 22:43:13;;;;;;;49.17;45.57;;;;;;;14.95;100.00;101622.05;1910291;74;86523;-68
2021/12/30 22:48:58;;;;;;;50.07;46.70;;;;;;;14.97;100.00;101621.17;1986152;71;39573;-68
2021/12/30 22:54:42;;;;;;;53.23;49.77;;;;;;;14.90;100.00;101608.67;1837685;76;86208;-70
2021/12/30 23:00:32;;;;;;;51.50;47.67;;;;;;;14.96;100.00;101596.31;1883135;74;86453;-69
2021/12/30 23:06:18;;;;;;;51.17;47.70;;;;;;;14.98;100.00;101585.64;1910295;72;86409;-70
2021/12/30 23:12:02;;;;;;;52.17;48.77;;;;;;;14.92;100.00;101570.90;1951492;73;86131;-71
2021/12/30 23:17:47;;;;;;;51.20;47.50;;;;;;;14.92;100.00;101570.90;1803079;78;86998;-69
2021/12/30 23:23:32;;;;;;;53.40;49.70;;;;;;;14.94;100.00;101566.38;1798296;77;86916;-68
2021/12/30 23:29:15;;;;;;;54.37;50.77;;;;;;;14.82;100.00;101570.16;1906721;74;85426;-69
2021/12/30 23:34:59;;;;;;;50.73;47.30;;;;;;;14.88;100.00;101573.19;1985791;71;39688;-69
2021/12/30 23:40:45;;;;;;;55.23;51.90;;;;;;;14.87;100.00;101570.95;1844642;76;86728;-70
2021/12/30 23:46:30;;;;;;;53.07;49.43;;;;;;;14.85;100.00;101557.81;1891008;74;86795;-68
2021/12/30 23:52:16;;;;;;;51.27;47.90;;;;;;;14.91;100.00;101565.59;1918553;72;86514;-67
2021/12/30 23:58:01;;;;;;;53.73;50.43;;;;;;;14.84;100.00;101556.73;1975281;71;39603;-70
